createdAt,value
2024-03-27T00:01:10.889Z,4.63
2024-03-27T00:03:45.571Z,4.67
2024-03-27T00:06:12.259Z,5.17
2024-03-27T00:08:39.126Z,4.90
2024-03-27T00:11:05.622Z,5.17
2024-03-27T00:13:32.696Z,4.93
2024-03-27T00:15:59.300Z,4.90
2024-03-27T00:18:26.406Z,5.03
2024-03-27T00:20:53.244Z,4.30
2024-03-27T00:23:20.045Z,4.97
2024-03-27T00:25:46.624Z,4.90
2024-03-27T00:28:13.463Z,4.67
2024-03-27T00:30:40.374Z,4.33
2024-03-27T00:33:07.402Z,4.70
2024-03-27T00:35:33.860Z,4.50
2024-03-27T00:38:00.764Z,4.27
2024-03-27T00:40:27.535Z,4.87
2024-03-27T00:42:55.914Z,4.43
2024-03-27T00:45:22.927Z,4.77
2024-03-27T00:47:49.848Z,4.93
2024-03-27T00:50:16.332Z,5.10
2024-03-27T00:52:43.215Z,4.43
2024-03-27T00:55:09.684Z,4.80
2024-03-27T00:57:36.604Z,4.87
2024-03-27T01:00:03.619Z,4.20
2024-03-27T01:02:30.459Z,4.77
2024-03-27T01:04:57.072Z,4.87
2024-03-27T01:07:24.119Z,4.87
2024-03-27T01:09:50.655Z,4.97
2024-03-27T01:12:17.451Z,4.83
2024-03-27T01:14:44.166Z,4.47
2024-03-27T01:17:10.795Z,4.13
2024-03-27T01:19:37.576Z,4.43
2024-03-27T01:22:04.367Z,4.73
2024-03-27T01:24:30.969Z,4.83
2024-03-27T01:26:57.923Z,5.23
2024-03-27T01:29:24.272Z,5.07
2024-03-27T01:31:51.116Z,4.10
2024-03-27T01:34:17.644Z,4.60
2024-03-27T01:36:44.463Z,4.50
2024-03-27T01:39:10.903Z,4.70
2024-03-27T01:41:38.026Z,4.97
2024-03-27T01:44:04.493Z,4.53
2024-03-27T01:46:31.672Z,5.17
2024-03-27T01:48:58.185Z,4.53
2024-03-27T01:51:25.026Z,4.80
2024-03-27T01:53:51.660Z,4.33
2024-03-27T01:56:19.361Z,5.10
2024-03-27T01:58:46.746Z,5.13
2024-03-27T02:01:13.494Z,5.00
2024-03-27T02:03:40.732Z,4.57
2024-03-27T02:06:08.666Z,4.67
2024-03-27T02:08:35.609Z,4.77
2024-03-27T02:11:02.951Z,4.40
2024-03-27T02:13:30.160Z,4.57
2024-03-27T02:16:01.095Z,4.53
2024-03-27T02:18:27.820Z,4.60
2024-03-27T02:21:22.471Z,4.60
2024-03-27T02:24:17.801Z,4.70
2024-03-27T02:26:45.124Z,4.60
2024-03-27T02:29:11.687Z,4.93
2024-03-27T02:31:39.127Z,4.37
2024-03-27T02:34:06.105Z,4.73
2024-03-27T02:36:33.112Z,4.67
2024-03-27T02:38:59.874Z,4.87
2024-03-27T02:41:26.984Z,4.67
2024-03-27T02:43:54.298Z,4.37
2024-03-27T02:46:21.189Z,4.43
2024-03-27T02:48:48.267Z,4.57
2024-03-27T02:51:15.260Z,5.00
2024-03-27T02:53:41.931Z,5.37
2024-03-27T02:56:08.705Z,4.90
2024-03-27T02:58:35.233Z,5.13
2024-03-27T03:01:02.150Z,4.63
2024-03-27T03:03:28.968Z,4.77
2024-03-27T03:05:59.190Z,5.07
2024-03-27T03:08:25.693Z,5.60
2024-03-27T03:10:53.332Z,4.73
2024-03-27T03:13:20.224Z,4.70
2024-03-27T03:15:46.957Z,4.60
2024-03-27T03:18:13.522Z,4.60
2024-03-27T03:20:40.258Z,5.07
2024-03-27T03:23:06.871Z,4.87
2024-03-27T03:25:34.129Z,5.20
2024-03-27T03:28:00.889Z,4.43
2024-03-27T03:30:28.091Z,5.10
2024-03-27T03:32:54.946Z,4.70
2024-03-27T03:35:21.712Z,4.67
2024-03-27T03:37:48.129Z,4.70
2024-03-27T03:40:15.277Z,4.50
2024-03-27T03:42:41.613Z,4.50
2024-03-27T03:45:08.632Z,4.30
2024-03-27T03:47:35.360Z,4.40
2024-03-27T03:50:02.444Z,4.73
2024-03-27T03:52:28.912Z,4.47
2024-03-27T03:54:55.712Z,4.80
2024-03-27T03:57:22.054Z,5.03
2024-03-27T03:59:48.769Z,4.93
2024-03-27T04:02:15.490Z,4.83
2024-03-27T04:04:42.421Z,5.03
2024-03-27T04:07:09.121Z,4.83
2024-03-27T04:09:35.904Z,4.83
2024-03-27T04:12:02.484Z,4.40
2024-03-27T04:14:29.434Z,4.60
2024-03-27T04:16:55.826Z,5.03
2024-03-27T04:19:22.661Z,4.17
2024-03-27T04:21:49.030Z,4.80
2024-03-27T04:24:16.778Z,3.90
2024-03-27T04:26:43.705Z,4.73
2024-03-27T04:29:11.216Z,4.97
2024-03-27T04:31:38.552Z,4.37
2024-03-27T04:34:06.670Z,5.00
2024-03-27T04:36:33.558Z,4.10
2024-03-27T04:39:00.640Z,4.20
2024-03-27T04:41:27.380Z,4.73
2024-03-27T04:43:54.284Z,4.70
2024-03-27T04:46:21.063Z,4.43
2024-03-27T04:48:47.796Z,4.10
2024-03-27T04:51:14.273Z,4.37
2024-03-27T04:53:41.171Z,4.30
2024-03-27T04:56:08.233Z,4.43
2024-03-27T04:58:34.975Z,4.97
2024-03-27T05:01:01.604Z,4.43
2024-03-27T05:03:28.531Z,4.97
2024-03-27T05:05:55.371Z,4.37
2024-03-27T05:08:22.006Z,4.80
2024-03-27T05:10:48.515Z,4.20
2024-03-27T05:13:16.086Z,3.90
2024-03-27T05:15:42.783Z,4.40
2024-03-27T05:18:09.692Z,4.80
2024-03-27T05:20:37.134Z,4.73
2024-03-27T05:23:03.994Z,4.43
2024-03-27T05:25:30.371Z,4.33
2024-03-27T05:27:59.145Z,4.30
2024-03-27T05:30:26.085Z,4.07
2024-03-27T05:32:52.969Z,3.97
2024-03-27T05:35:19.500Z,4.27
2024-03-27T05:37:49.100Z,4.60
2024-03-27T05:40:15.916Z,4.37
2024-03-27T05:42:45.597Z,5.00
2024-03-27T05:45:12.467Z,4.63
2024-03-27T05:47:42.507Z,3.90
2024-03-27T05:50:10.466Z,3.87
2024-03-27T05:52:37.500Z,4.40
2024-03-27T05:55:04.523Z,3.67
2024-03-27T05:57:31.310Z,4.47
2024-03-27T05:59:57.786Z,4.30
2024-03-27T06:02:24.465Z,4.07
2024-03-27T06:04:50.984Z,3.97
2024-03-27T06:07:17.715Z,3.80
2024-03-27T06:09:45.138Z,4.67
2024-03-27T06:12:12.474Z,4.27
2024-03-27T06:14:38.966Z,4.97
2024-03-27T06:17:05.721Z,4.80
2024-03-27T06:19:32.218Z,4.80
2024-03-27T06:21:59.006Z,7.27
2024-03-27T06:24:25.383Z,4.80
2024-03-27T06:26:53.813Z,4.43
2024-03-27T06:29:21.742Z,4.00
2024-03-27T06:31:48.894Z,3.87
2024-03-27T06:34:15.315Z,3.80
2024-03-27T06:36:41.987Z,4.10
2024-03-27T06:39:12.906Z,4.27
2024-03-27T06:41:40.589Z,3.80
2024-03-27T06:44:09.550Z,3.80
2024-03-27T06:46:39.420Z,4.20
2024-03-27T06:49:18.656Z,4.00
2024-03-27T06:51:46.539Z,3.63
2024-03-27T06:54:13.169Z,4.30
2024-03-27T06:56:40.121Z,3.80
2024-03-27T06:59:07.526Z,4.17
2024-03-27T07:01:35.866Z,4.60
2024-03-27T07:04:04.128Z,8.37
2024-03-27T07:06:31.350Z,8.33
2024-03-27T07:08:58.480Z,6.23
2024-03-27T07:11:25.363Z,6.37
2024-03-27T07:13:53.611Z,4.97
2024-03-27T07:16:22.197Z,5.90
2024-03-27T07:18:48.657Z,4.30
2024-03-27T07:21:15.438Z,8.87
2024-03-27T07:23:41.782Z,7.30
2024-03-27T07:26:09.312Z,6.30
2024-03-27T07:28:36.231Z,10.23
2024-03-27T07:31:07.334Z,5.63
2024-03-27T07:33:34.395Z,4.43
2024-03-27T07:36:01.302Z,5.00
2024-03-27T07:38:27.996Z,3.87
2024-03-27T07:40:54.916Z,8.63
2024-03-27T07:43:21.860Z,5.43
2024-03-27T07:45:48.745Z,4.70
2024-03-27T07:48:15.400Z,6.40
2024-03-27T07:50:42.422Z,5.53
2024-03-27T07:53:08.844Z,4.80
2024-03-27T07:55:35.562Z,3.37
2024-03-27T07:58:01.906Z,4.40
2024-03-27T08:00:29.000Z,3.27
2024-03-27T08:02:55.560Z,3.53
2024-03-27T08:05:22.310Z,4.60
2024-03-27T08:07:48.634Z,3.73
2024-03-27T08:10:15.724Z,3.60
2024-03-27T08:12:42.241Z,3.80
2024-03-27T08:15:11.346Z,4.03
2024-03-27T08:17:38.132Z,3.43
2024-03-27T08:20:06.546Z,3.53
2024-03-27T08:22:33.102Z,3.53
2024-03-27T08:24:59.927Z,4.00
2024-03-27T08:27:26.527Z,3.60
2024-03-27T08:29:54.494Z,4.17
2024-03-27T08:32:21.393Z,3.80
2024-03-27T08:34:48.080Z,3.67
2024-03-27T08:37:14.398Z,4.37
2024-03-27T08:39:42.875Z,3.93
2024-03-27T08:42:09.366Z,3.07
2024-03-27T08:44:36.089Z,3.43
2024-03-27T08:47:02.657Z,3.50
2024-03-27T08:49:29.485Z,3.70
2024-03-27T08:51:56.487Z,3.50
2024-03-27T08:54:23.275Z,3.80
2024-03-27T08:56:49.999Z,3.13
2024-03-27T08:59:16.838Z,3.57
2024-03-27T09:01:43.262Z,3.50
2024-03-27T09:04:10.031Z,3.43
2024-03-27T09:06:37.446Z,3.60
2024-03-27T09:09:05.586Z,2.80
2024-03-27T09:11:32.498Z,3.33
2024-03-27T09:13:59.495Z,3.57
2024-03-27T09:16:26.116Z,3.50
2024-03-27T09:18:53.021Z,3.20
2024-03-27T09:21:19.438Z,3.10
2024-03-27T09:23:46.471Z,3.00
2024-03-27T09:26:12.941Z,2.87
2024-03-27T09:28:39.729Z,4.00
2024-03-27T09:31:06.245Z,3.97
2024-03-27T09:33:33.145Z,4.27
2024-03-27T09:36:01.596Z,4.50
2024-03-27T09:38:33.729Z,2.77
2024-03-27T09:41:03.106Z,3.00
2024-03-27T09:43:32.563Z,3.20
2024-03-27T09:45:59.375Z,3.60
2024-03-27T09:48:26.521Z,3.23
2024-03-27T09:50:56.259Z,3.67
2024-03-27T09:53:23.020Z,2.43
2024-03-27T09:55:50.725Z,2.50
2024-03-27T09:58:18.974Z,2.60
2024-03-27T10:00:45.734Z,2.50
2024-03-27T10:03:14.949Z,2.80
2024-03-27T10:05:44.102Z,2.67
2024-03-27T10:08:10.765Z,2.47
2024-03-27T10:10:37.509Z,2.30
2024-03-27T10:13:05.017Z,3.03
2024-03-27T10:15:33.683Z,2.13
2024-03-27T10:18:00.436Z,2.67
2024-03-27T10:20:26.824Z,2.87
2024-03-27T10:22:53.525Z,3.40
2024-03-27T10:25:20.979Z,5.27
2024-03-27T10:27:48.613Z,2.67
2024-03-27T10:30:15.237Z,3.03
2024-03-27T10:32:41.925Z,3.13
2024-03-27T10:35:09.196Z,3.00
2024-03-27T10:37:36.361Z,2.80
2024-03-27T10:40:08.314Z,2.97
2024-03-27T10:42:39.345Z,2.70
2024-03-27T10:45:07.091Z,2.70
2024-03-27T10:47:34.762Z,3.00
2024-03-27T10:50:04.955Z,2.80
2024-03-27T10:52:32.833Z,3.07
2024-03-27T10:55:01.590Z,3.20
2024-03-27T10:57:28.776Z,2.87
2024-03-27T10:59:57.836Z,3.07
2024-03-27T11:02:24.599Z,2.83
2024-03-27T11:05:05.006Z,2.53
2024-03-27T11:07:35.975Z,2.50
2024-03-27T11:10:02.999Z,4.17
2024-03-27T11:12:30.459Z,6.67
2024-03-27T11:15:04.599Z,5.23
2024-03-27T11:17:32.476Z,7.40
2024-03-27T11:20:05.274Z,4.97
2024-03-27T11:22:36.491Z,3.33
2024-03-27T11:25:09.891Z,2.73
2024-03-27T11:27:38.031Z,2.63
2024-03-27T11:30:04.993Z,3.23
2024-03-27T11:32:37.687Z,2.90
2024-03-27T11:35:05.082Z,2.57
2024-03-27T11:37:31.998Z,2.30
2024-03-27T11:40:18.247Z,2.45
2024-03-27T11:42:45.210Z,2.27
2024-03-27T11:45:11.967Z,1.97
2024-03-27T11:47:39.183Z,2.13
2024-03-27T11:50:08.482Z,2.42
2024-03-27T11:52:35.495Z,2.40
2024-03-27T11:55:01.992Z,2.53
2024-03-27T11:57:30.237Z,2.63
2024-03-27T12:00:05.609Z,2.90
2024-03-27T12:02:35.116Z,2.60
2024-03-27T12:05:04.670Z,2.80
2024-03-27T12:07:36.086Z,1.90
2024-03-27T12:10:09.844Z,2.60
2024-03-27T12:12:36.858Z,6.05
2024-03-27T12:15:03.713Z,3.47
2024-03-27T12:17:40.057Z,2.33
2024-03-27T12:20:12.556Z,2.65
2024-03-27T12:22:39.296Z,2.53
2024-03-27T12:25:05.999Z,2.28
2024-03-27T12:27:33.855Z,2.10
2024-03-27T12:30:00.729Z,2.47
2024-03-27T12:32:29.034Z,2.20
2024-03-27T12:34:57.472Z,2.17
2024-03-27T12:37:25.962Z,2.33
2024-03-27T12:39:52.333Z,2.73
2024-03-27T12:42:19.071Z,2.27
2024-03-27T12:44:45.425Z,2.70
2024-03-27T12:47:12.100Z,2.20
2024-03-27T12:49:38.495Z,2.87
2024-03-27T12:52:05.164Z,2.80
2024-03-27T12:54:32.704Z,2.22
2024-03-27T12:57:00.830Z,2.50
2024-03-27T12:59:27.365Z,2.50
2024-03-27T13:01:54.522Z,2.55
2024-03-27T13:04:22.500Z,2.13
2024-03-27T13:06:49.463Z,2.33
2024-03-27T13:09:16.006Z,2.45
2024-03-27T13:11:44.124Z,4.25
2024-03-27T13:14:10.789Z,4.95
2024-03-27T13:16:37.909Z,3.80
2024-03-27T13:19:05.064Z,2.83
2024-03-27T13:21:32.221Z,2.67
2024-03-27T13:23:58.803Z,2.17
2024-03-27T13:26:26.184Z,2.15
2024-03-27T13:28:52.775Z,2.35
2024-03-27T13:31:20.172Z,2.40
2024-03-27T13:33:46.795Z,2.28
2024-03-27T13:36:13.816Z,2.55
2024-03-27T13:38:40.427Z,2.40
2024-03-27T13:41:07.384Z,3.05
2024-03-27T13:43:33.763Z,2.83
2024-03-27T13:46:01.533Z,2.25
2024-03-27T13:48:29.581Z,2.42
2024-03-27T13:50:57.099Z,2.38
2024-03-27T13:53:23.611Z,2.60
2024-03-27T13:55:50.376Z,2.40
2024-03-27T13:58:16.917Z,2.42
2024-03-27T14:00:43.671Z,2.72
2024-03-27T14:03:10.069Z,2.38
2024-03-27T14:05:37.449Z,2.50
2024-03-27T14:08:06.070Z,2.65
2024-03-27T14:10:34.393Z,2.33
2024-03-27T14:13:02.158Z,2.55
2024-03-27T14:15:29.558Z,2.83
2024-03-27T14:17:56.144Z,2.35
2024-03-27T14:20:23.135Z,2.25
2024-03-27T14:22:49.575Z,3.30
2024-03-27T14:25:17.226Z,2.33
2024-03-27T14:27:43.610Z,2.25
2024-03-27T14:30:10.933Z,2.15
2024-03-27T14:32:37.395Z,2.20
2024-03-27T14:35:05.029Z,2.22
2024-03-27T14:37:31.519Z,2.78
2024-03-27T14:39:58.286Z,2.47
2024-03-27T14:42:25.643Z,2.40
2024-03-27T14:44:52.267Z,2.40
2024-03-27T14:47:18.845Z,2.20
2024-03-27T14:49:45.755Z,3.85
2024-03-27T14:52:12.485Z,17.85
2024-03-27T14:54:39.203Z,18.45
2024-03-27T14:57:05.749Z,7.22
2024-03-27T14:59:32.642Z,12.02
2024-03-27T15:01:59.191Z,7.43
2024-03-27T15:04:26.195Z,2.38
2024-03-27T15:06:53.419Z,2.63
2024-03-27T15:09:22.048Z,1.75
2024-03-27T15:11:50.964Z,1.70
2024-03-27T15:14:17.661Z,2.00
2024-03-27T15:16:44.111Z,1.40
2024-03-27T15:19:11.055Z,1.33
2024-03-27T15:21:37.565Z,1.40
2024-03-27T15:24:05.255Z,1.80
2024-03-27T15:26:31.974Z,6.93
2024-03-27T15:28:59.172Z,12.10
2024-03-27T15:31:25.658Z,16.17
2024-03-27T15:33:52.533Z,13.57
2024-03-27T15:36:19.135Z,2.75
2024-03-27T15:38:46.000Z,2.07
2024-03-27T15:41:13.528Z,2.22
2024-03-27T15:43:40.260Z,2.20
2024-03-27T15:46:06.687Z,2.03
2024-03-27T15:48:33.743Z,2.20
2024-03-27T15:51:00.407Z,1.67
2024-03-27T15:53:27.316Z,2.17
2024-03-27T15:55:53.765Z,1.90
2024-03-27T15:58:20.656Z,2.00
2024-03-27T16:00:48.599Z,10.33
2024-03-27T16:03:15.422Z,2.20
2024-03-27T16:05:42.206Z,2.10
2024-03-27T16:08:09.031Z,1.80
2024-03-27T16:10:35.793Z,2.10
2024-03-27T16:13:02.943Z,1.80
2024-03-27T16:15:29.518Z,1.70
2024-03-27T16:17:56.420Z,1.97
2024-03-27T16:20:23.154Z,1.67
2024-03-27T16:22:51.985Z,2.20
2024-03-27T16:25:19.599Z,1.80
2024-03-27T16:27:46.346Z,1.80
2024-03-27T16:30:12.834Z,5.87
2024-03-27T16:32:39.586Z,3.73
2024-03-27T16:35:06.459Z,3.93
2024-03-27T16:37:33.213Z,2.10
2024-03-27T16:39:59.937Z,2.00
2024-03-27T16:42:26.913Z,1.80
2024-03-27T16:44:53.458Z,2.07
2024-03-27T16:47:20.384Z,1.60
2024-03-27T16:49:47.753Z,1.80
2024-03-27T16:52:14.777Z,1.53
2024-03-27T16:54:44.675Z,1.50
2024-03-27T16:57:12.185Z,2.13
2024-03-27T16:59:38.588Z,5.10
2024-03-27T17:02:05.729Z,4.93
2024-03-27T17:04:32.116Z,19.40
2024-03-27T17:06:58.845Z,20.33
2024-03-27T17:09:25.276Z,19.90
2024-03-27T17:11:52.189Z,12.03
2024-03-27T17:14:18.578Z,5.13
2024-03-27T17:16:45.603Z,5.90
2024-03-27T17:19:12.029Z,3.07
2024-03-27T17:21:39.037Z,2.77
2024-03-27T17:24:06.371Z,2.73
2024-03-27T17:26:33.997Z,2.47
2024-03-27T17:29:01.724Z,2.23
2024-03-27T17:31:28.506Z,2.37
2024-03-27T17:33:54.918Z,3.13
2024-03-27T17:36:21.903Z,2.87
2024-03-27T17:38:51.089Z,2.03
2024-03-27T17:41:18.072Z,2.90
2024-03-27T17:43:44.638Z,3.50
2024-03-27T17:46:11.335Z,3.90
2024-03-27T17:48:37.886Z,3.00
2024-03-27T17:51:05.018Z,3.33
2024-03-27T17:53:35.229Z,2.80
2024-03-27T17:56:03.703Z,2.73
2024-03-27T17:58:32.276Z,2.97
2024-03-27T18:01:12.867Z,2.97
2024-03-27T18:03:40.040Z,3.40
2024-03-27T18:06:09.205Z,2.70
2024-03-27T18:08:36.117Z,2.57
2024-03-27T18:11:04.388Z,3.00
2024-03-27T18:13:31.312Z,3.07
2024-03-27T18:16:03.258Z,3.10
2024-03-27T18:18:30.531Z,3.17
2024-03-27T18:20:59.003Z,3.27
2024-03-27T18:23:26.128Z,3.00
2024-03-27T18:25:53.252Z,3.10
2024-03-27T18:28:21.725Z,3.83
2024-03-27T18:31:00.422Z,2.97
2024-03-27T18:33:27.625Z,3.10
2024-03-27T18:35:54.629Z,2.90
2024-03-27T18:38:21.534Z,3.13
2024-03-27T18:40:48.923Z,3.33
2024-03-27T18:43:15.485Z,3.60
2024-03-27T18:45:48.345Z,4.33
2024-03-27T18:48:14.838Z,3.50
2024-03-27T18:50:41.909Z,2.67
2024-03-27T18:53:08.499Z,3.80
2024-03-27T18:55:35.515Z,3.13
2024-03-27T18:58:03.521Z,3.17
2024-03-27T19:00:30.403Z,4.73
2024-03-27T19:02:57.088Z,3.50
2024-03-27T19:05:23.851Z,4.13
2024-03-27T19:07:50.265Z,3.73
2024-03-27T19:10:17.098Z,3.37
2024-03-27T19:12:43.663Z,3.60
2024-03-27T19:15:10.608Z,3.63
2024-03-27T19:17:37.047Z,3.50
2024-03-27T19:20:04.860Z,3.30
2024-03-27T19:22:34.025Z,4.47
2024-03-27T19:25:01.034Z,4.13
2024-03-27T19:27:27.833Z,5.60
2024-03-27T19:29:54.572Z,5.03
2024-03-27T19:32:21.242Z,6.27
2024-03-27T19:34:48.508Z,3.60
2024-03-27T19:37:15.296Z,3.07
2024-03-27T19:39:42.054Z,3.23
2024-03-27T19:42:09.998Z,2.73
2024-03-27T19:44:36.982Z,2.77
2024-03-27T19:47:03.511Z,2.80
2024-03-27T19:49:30.387Z,3.67
2024-03-27T19:52:09.586Z,3.83
2024-03-27T19:54:42.140Z,9.93
2024-03-27T19:57:08.552Z,11.67
2024-03-27T19:59:35.468Z,3.50
2024-03-27T20:02:01.920Z,3.20
2024-03-27T20:04:28.595Z,3.40
2024-03-27T20:06:55.237Z,3.73
2024-03-27T20:09:22.145Z,4.03
2024-03-27T20:11:48.511Z,5.17
2024-03-27T20:14:15.343Z,3.77
2024-03-27T20:16:43.002Z,6.43
2024-03-27T20:19:09.854Z,8.67
2024-03-27T20:21:36.354Z,5.50
2024-03-27T20:24:03.343Z,4.40
2024-03-27T20:26:30.473Z,7.53
2024-03-27T20:28:57.325Z,3.73
2024-03-27T20:31:23.804Z,3.13
2024-03-27T20:33:50.953Z,3.27
2024-03-27T20:36:17.544Z,3.40
2024-03-27T20:38:44.502Z,3.60
2024-03-27T20:41:11.518Z,3.87
2024-03-27T20:43:38.239Z,5.97
2024-03-27T20:46:08.369Z,5.07
2024-03-27T20:48:35.448Z,6.90
2024-03-27T20:51:05.125Z,4.37
2024-03-27T20:53:31.981Z,4.67
2024-03-27T20:55:58.785Z,3.70
2024-03-27T20:58:25.561Z,3.60
2024-03-27T21:00:53.150Z,3.70
2024-03-27T21:03:20.195Z,3.27
2024-03-27T21:05:47.290Z,3.37
2024-03-27T21:08:14.093Z,4.03
2024-03-27T21:10:49.009Z,5.87
2024-03-27T21:13:16.322Z,3.57
2024-03-27T21:15:46.117Z,3.03
2024-03-27T21:18:13.287Z,3.53
2024-03-27T21:20:40.007Z,3.10
2024-03-27T21:23:07.423Z,3.57
2024-03-27T21:25:34.154Z,3.00
2024-03-27T21:28:01.131Z,3.30
2024-03-27T21:30:27.651Z,2.87
2024-03-27T21:32:54.617Z,2.90
2024-03-27T21:35:21.528Z,3.13
2024-03-27T21:37:48.752Z,3.17
2024-03-27T21:40:15.242Z,3.40
2024-03-27T21:42:42.316Z,2.90
2024-03-27T21:45:09.392Z,3.50
2024-03-27T21:47:36.474Z,3.20
2024-03-27T21:50:02.957Z,4.93
2024-03-27T21:52:29.850Z,3.10
2024-03-27T21:54:57.285Z,3.93
2024-03-27T21:57:24.359Z,12.30
2024-03-27T21:59:50.849Z,5.13
2024-03-27T22:02:17.909Z,3.70
2024-03-27T22:04:44.769Z,2.90
2024-03-27T22:07:11.511Z,3.17
2024-03-27T22:09:37.988Z,2.77
2024-03-27T22:12:05.417Z,3.03
2024-03-27T22:14:31.796Z,2.90
2024-03-27T22:16:58.502Z,2.90
2024-03-27T22:19:25.140Z,3.50
2024-03-27T22:21:51.755Z,3.17
2024-03-27T22:24:20.153Z,3.20
2024-03-27T22:26:47.745Z,3.40
2024-03-27T22:29:14.307Z,3.40
2024-03-27T22:31:41.168Z,3.27
2024-03-27T22:34:08.455Z,3.67
2024-03-27T22:36:35.561Z,3.33
2024-03-27T22:39:01.927Z,3.37
2024-03-27T22:41:33.095Z,3.63
2024-03-27T22:43:59.783Z,3.30
2024-03-27T22:46:26.748Z,3.20
2024-03-27T22:48:57.275Z,3.77
2024-03-27T22:51:28.594Z,3.23
2024-03-27T22:53:55.209Z,3.77
2024-03-27T22:56:22.347Z,3.17
2024-03-27T22:58:48.790Z,3.27
2024-03-27T23:01:18.947Z,3.50
2024-03-27T23:03:45.572Z,3.27
2024-03-27T23:06:12.511Z,3.30
2024-03-27T23:08:38.865Z,3.43
2024-03-27T23:11:06.020Z,3.37
2024-03-27T23:13:32.579Z,3.23
2024-03-27T23:16:00.073Z,3.67
2024-03-27T23:18:26.582Z,3.53
2024-03-27T23:20:54.499Z,3.13
2024-03-27T23:23:20.806Z,3.37
2024-03-27T23:25:48.025Z,3.47
2024-03-27T23:28:14.708Z,3.30
2024-03-27T23:30:43.672Z,3.50
2024-03-27T23:33:10.015Z,2.93
2024-03-27T23:35:36.668Z,3.27
2024-03-27T23:38:03.536Z,3.10
2024-03-27T23:40:30.497Z,3.30
2024-03-27T23:42:56.875Z,3.20
2024-03-27T23:45:23.610Z,2.60
2024-03-27T23:47:50.553Z,3.00
2024-03-27T23:50:17.313Z,2.97
2024-03-27T23:52:43.788Z,3.00
2024-03-27T23:55:10.534Z,3.37
2024-03-27T23:57:37.338Z,3.07
